Time;durP1;ratioP1;P1;durP2;ratioP2;P2;SDS_P1;SDS_P2;PMS_P1;PMS_P2;Temp;Humidity;BMP_temperature;BMP_pressure;BME280_temperature;BME280_humidity;BME280_pressure;Samples;Min_cycle;Max_cycle;Signal;HPM_P1;HPM_P2
2021/12/01 00:00:59;;;;;;;15.98;8.93;;;;;;;8.32;100.00;100189.81;5031826;28;20022;-85
2021/12/01 00:03:25;;;;;;;15.63;8.18;;;;;;;8.26;100.00;100165.72;5042384;28;20458;-84
2021/12/01 00:05:51;;;;;;;14.80;9.05;;;;;;;8.33;100.00;100177.66;5031349;28;20021;-85
2021/12/01 00:08:17;;;;;;;15.93;8.27;;;;;;;8.31;100.00;100175.13;5030593;28;20052;-86
2021/12/01 00:10:44;;;;;;;17.77;8.95;;;;;;;8.29;100.00;100163.06;5029907;28;20052;-85
2021/12/01 00:13:13;;;;;;;14.48;8.23;;;;;;;8.31;100.00;100156.09;5030849;28;20026;-86
2021/12/01 00:15:40;;;;;;;14.65;7.97;;;;;;;8.32;100.00;100147.41;5029190;28;20037;-85
2021/12/01 00:18:05;;;;;;;14.20;8.25;;;;;;;8.30;100.00;100137.03;5032018;28;20512;-86
2021/12/01 00:20:31;;;;;;;14.90;8.45;;;;;;;8.24;100.00;100118.16;5031821;28;20021;-85
2021/12/01 00:22:58;;;;;;;13.38;8.02;;;;;;;8.29;100.00;100124.09;5030859;28;20488;-85
2021/12/01 00:25:25;;;;;;;13.52;6.63;;;;;;;8.30;100.00;100112.81;5031615;28;20033;-85
2021/12/01 00:27:51;;;;;;;13.32;7.43;;;;;;;8.29;100.00;100111.13;5031593;28;20033;-85
2021/12/01 00:30:18;;;;;;;11.40;6.68;;;;;;;8.29;100.00;100098.13;5029813;28;20033;-84
2021/12/01 00:32:44;;;;;;;11.73;7.05;;;;;;;8.28;100.00;100091.25;5031185;28;20037;-85
2021/12/01 00:35:10;;;;;;;12.15;7.72;;;;;;;8.26;100.00;100080.03;5031645;28;20362;-85
2021/12/01 00:37:36;;;;;;;13.32;7.30;;;;;;;8.27;100.00;100067.00;5040052;28;20477;-85
2021/12/01 00:40:03;;;;;;;16.88;7.28;;;;;;;8.23;100.00;100059.34;5052114;28;20032;-85
2021/12/01 00:42:28;;;;;;;15.07;8.00;;;;;;;8.23;100.00;100065.38;5035616;28;20087;-85
2021/12/01 00:44:56;;;;;;;14.35;7.30;;;;;;;8.19;100.00;100051.63;5030815;28;20029;-85
2021/12/01 00:47:30;;;;;;;14.23;7.38;;;;;;;8.24;100.00;100056.72;5031625;28;20017;-85
2021/12/01 00:49:55;;;;;;;13.23;7.20;;;;;;;8.20;100.00;100042.94;5031983;28;20025;-85
2021/12/01 00:52:20;;;;;;;13.07;7.28;;;;;;;8.21;100.00;100039.47;5031341;28;20047;-85
2021/12/01 00:54:46;;;;;;;13.68;7.20;;;;;;;7.98;100.00;99998.53;5031672;28;20033;-85
2021/12/01 00:57:11;;;;;;;12.05;7.32;;;;;;;8.17;100.00;100043.06;5031972;28;20386;-85
2021/12/01 00:59:36;;;;;;;12.43;7.38;;;;;;;8.15;100.00;100036.19;5030555;28;20531;-85
2021/12/01 01:02:02;;;;;;;16.02;7.57;;;;;;;8.15;100.00;100031.00;5031865;28;20025;-85
2021/12/01 01:04:27;;;;;;;12.35;6.95;;;;;;;8.14;100.00;100016.28;5030545;28;20541;-85
2021/12/01 01:06:52;;;;;;;15.57;7.97;;;;;;;8.14;100.00;100024.06;5031135;28;20026;-85
2021/12/01 01:09:18;;;;;;;14.20;8.23;;;;;;;8.11;100.00;100004.25;5031414;28;20018;-86
2021/12/01 01:17:22;;;;;;;18.35;9.10;;;;;;;8.07;100.00;99992.22;5012254;28;19913;-86
2021/12/01 01:19:48;;;;;;;20.05;10.02;;;;;;;8.10;100.00;99999.94;5030562;28;20125;-86
2021/12/01 01:22:14;;;;;;;19.35;11.27;;;;;;;8.02;100.00;99994.13;5032993;28;20108;-85
2021/12/01 01:24:39;;;;;;;23.52;12.15;;;;;;;7.99;100.00;99973.44;5034386;28;20032;-85
2021/12/01 01:27:05;;;;;;;21.80;11.40;;;;;;;8.02;100.00;99978.53;5034107;28;20030;-86
2021/12/01 01:29:34;;;;;;;19.58;11.95;;;;;;;7.93;100.00;99958.03;5033601;28;20078;-86
2021/12/01 01:32:00;;;;;;;20.02;11.60;;;;;;;7.95;100.00;99972.66;5035112;28;20088;-86
2021/12/01 01:34:26;;;;;;;18.55;10.95;;;;;;;7.94;100.00;99965.75;5034554;28;20033;-87
2021/12/01 01:36:52;;;;;;;20.00;11.88;;;;;;;7.94;100.00;99970.94;5035798;28;20033;-87
2021/12/01 01:39:18;;;;;;;18.92;11.27;;;;;;;7.86;100.00;99956.50;5042735;28;20106;-87
2021/12/01 01:41:44;;;;;;;17.67;11.20;;;;;;;7.88;100.00;99975.44;5034254;28;20021;-86
2021/12/01 01:44:10;;;;;;;15.98;10.50;;;;;;;7.90;100.00;99963.28;5033849;28;20056;-86
2021/12/01 01:46:37;;;;;;;17.15;11.07;;;;;;;7.88;100.00;99962.47;5034512;28;20049;-85
2021/12/01 01:49:18;;;;;;;16.40;10.48;;;;;;;7.83;100.00;99953.97;5034435;28;20040;-86
2021/12/01 01:51:45;;;;;;;20.00;11.00;;;;;;;7.80;100.00;99941.06;5034619;28;20029;-85
2021/12/01 01:54:11;;;;;;;16.50;11.45;;;;;;;7.81;100.00;99940.16;5032947;28;20088;-85
2021/12/01 01:56:37;;;;;;;17.17;10.63;;;;;;;7.74;100.00;99932.53;5033974;28;20025;-86
2021/12/01 01:59:03;;;;;;;15.90;10.77;;;;;;;7.76;100.00;99929.09;5034852;28;20480;-85
2021/12/01 02:03:54;;;;;;;16.33;10.50;;;;;;;7.75;100.00;99920.44;5034342;28;20037;-85
2021/12/01 02:06:23;;;;;;;18.95;10.98;;;;;;;7.69;100.00;99918.84;5034015;28;20021;-86
2021/12/01 02:08:53;;;;;;;17.00;9.93;;;;;;;7.68;100.00;99919.75;5032778;28;20148;-85
2021/12/01 02:11:20;;;;;;;13.38;9.43;;;;;;;7.61;100.00;99894.84;5033722;28;20033;-86
2021/12/01 02:13:46;;;;;;;14.45;9.77;;;;;;;7.68;100.00;99893.81;5033454;28;20060;-85
2021/12/01 02:16:13;;;;;;;15.35;9.35;;;;;;;7.66;100.00;99899.94;5033122;28;20029;-85
2021/12/01 02:18:39;;;;;;;13.00;8.15;;;;;;;7.58;100.00;99871.59;5032761;28;20183;-86
2021/12/01 02:21:13;;;;;;;11.85;7.95;;;;;;;7.60;100.00;99871.56;5033484;28;20108;-86
2021/12/01 02:23:44;;;;;;;12.10;7.40;;;;;;;7.60;100.00;99874.16;5032106;28;20034;-85
2021/12/01 02:26:11;;;;;;;10.88;7.40;;;;;;;7.55;100.00;99858.69;5032965;28;20044;-86
2021/12/01 02:28:40;;;;;;;10.95;6.72;;;;;;;7.56;100.00;99850.03;5033947;28;20041;-86
2021/12/01 02:31:06;;;;;;;8.45;6.22;;;;;;;7.52;100.00;99848.44;5042163;28;20036;-86
2021/12/01 02:33:31;;;;;;;9.20;6.60;;;;;;;7.54;100.00;99841.44;5040316;28;20030;-85
2021/12/01 02:35:56;;;;;;;7.75;5.32;;;;;;;7.48;100.00;99839.00;5032079;28;20017;-86
2021/12/01 02:38:23;;;;;;;7.25;5.50;;;;;;;7.46;100.00;99838.22;5032784;28;20422;-86
2021/12/01 02:40:48;;;;;;;11.18;5.60;;;;;;;7.46;100.00;99838.22;5033857;28;20068;-85
2021/12/01 02:43:14;;;;;;;8.23;5.60;;;;;;;7.43;100.00;99818.41;5032558;28;20164;-86
2021/12/01 02:45:40;;;;;;;9.07;5.82;;;;;;;7.40;100.00;99799.47;5033032;28;20026;-86
2021/12/01 02:48:07;;;;;;;9.45;6.18;;;;;;;7.40;100.00;99797.72;5033086;28;20087;-86
2021/12/01 02:50:33;;;;;;;9.90;6.72;;;;;;;7.44;100.00;99803.69;5032014;28;20096;-86
2021/12/01 02:52:58;;;;;;;9.55;6.40;;;;;;;7.35;100.00;99783.19;5031910;28;20461;-86
2021/12/01 02:55:27;;;;;;;8.25;6.43;;;;;;;7.35;100.00;99786.63;5032400;28;20044;-86
2021/12/01 02:57:53;;;;;;;11.32;7.50;;;;;;;7.32;100.00;99778.06;5032211;28;20432;-85
2021/12/01 03:00:21;;;;;;;12.50;7.07;;;;;;;7.30;100.00;99774.69;5032669;28;20527;-86
2021/12/01 03:02:47;;;;;;;11.88;7.43;;;;;;;7.32;100.00;99772.91;5032827;28;20120;-85
2021/12/01 03:05:15;;;;;;;10.82;7.50;;;;;;;7.32;100.00;99763.38;5032284;28;20113;-85
2021/12/01 03:07:42;;;;;;;12.20;7.80;;;;;;;7.24;100.00;99750.63;5031859;28;20025;-85
2021/12/01 03:10:07;;;;;;;9.75;7.30;;;;;;;7.25;100.00;99744.53;5031448;28;20068;-85
2021/12/01 03:12:36;;;;;;;10.50;7.43;;;;;;;7.28;100.00;99759.16;5031444;28;20052;-86
2021/12/01 03:15:03;;;;;;;10.38;7.35;;;;;;;7.21;100.00;99742.94;5032802;28;20034;-86
2021/12/01 03:17:30;;;;;;;11.20;7.57;;;;;;;7.25;100.00;99730.72;5030694;28;20033;-85
2021/12/01 03:19:56;;;;;;;11.60;7.75;;;;;;;7.23;100.00;99740.31;5031704;28;20093;-86
2021/12/01 03:22:22;;;;;;;11.27;7.50;;;;;;;7.23;100.00;99732.53;5032579;28;20037;-85
2021/12/01 03:24:48;;;;;;;12.30;7.88;;;;;;;7.16;100.00;99723.19;5032619;28;20084;-86
2021/12/01 03:27:14;;;;;;;11.95;7.93;;;;;;;7.17;100.00;99715.41;5031058;28;20033;-85
2021/12/01 03:29:39;;;;;;;10.00;7.78;;;;;;;7.14;100.00;99706.84;5032128;28;20476;-86
2021/12/01 03:32:07;;;;;;;10.65;6.90;;;;;;;7.17;100.00;99706.78;5032096;28;20037;-86
2021/12/01 03:34:34;;;;;;;14.10;7.97;;;;;;;7.11;100.00;99697.41;5031113;28;20128;-85
2021/12/01 03:36:59;;;;;;;9.40;7.00;;;;;;;7.11;100.00;99686.22;5032796;28;20104;-85
2021/12/01 03:39:25;;;;;;;9.68;7.30;;;;;;;7.11;100.00;99681.03;5031747;28;20147;-85
2021/12/01 03:41:50;;;;;;;10.20;7.70;;;;;;;7.10;100.00;99690.53;5031823;28;20358;-85
2021/12/01 03:44:16;;;;;;;9.80;7.50;;;;;;;7.05;100.00;99658.72;5031418;28;20435;-86
2021/12/01 03:46:41;;;;;;;11.23;8.15;;;;;;;7.11;100.00;99668.91;5029369;28;20072;-86
2021/12/01 03:49:06;;;;;;;12.45;7.93;;;;;;;7.04;100.00;99657.03;5031464;28;20041;-87
2021/12/01 03:51:32;;;;;;;12.32;7.63;;;;;;;7.07;100.00;99658.69;5032037;28;20025;-86
2021/12/01 03:53:57;;;;;;;12.43;8.10;;;;;;;7.05;100.00;99650.94;5032037;28;20029;-86
2021/12/01 03:56:23;;;;;;;11.50;7.85;;;;;;;7.01;100.00;99634.63;5032329;28;20418;-87
2021/12/01 03:58:48;;;;;;;15.70;8.48;;;;;;;7.02;100.00;99627.69;5032567;28;20036;-87
2021/12/01 04:01:14;;;;;;;13.63;8.18;;;;;;;7.01;100.00;99605.28;5031975;28;20127;-85
2021/12/01 04:03:39;;;;;;;13.88;9.15;;;;;;;7.02;100.00;99602.63;5032219;28;20503;-86
2021/12/01 04:06:05;;;;;;;15.32;9.40;;;;;;;7.00;100.00;99599.25;5025832;28;20374;-88
2021/12/01 04:08:31;;;;;;;14.57;9.48;;;;;;;6.95;100.00;99588.16;5031987;28;20454;-87
2021/12/01 04:10:56;;;;;;;14.73;8.82;;;;;;;6.98;100.00;99582.88;5032954;28;20121;-86
2021/12/01 04:13:21;;;;;;;12.40;7.70;;;;;;;7.00;100.00;99585.44;5032848;28;20445;-88
2021/12/01 04:15:47;;;;;;;12.95;8.02;;;;;;;6.96;100.00;99578.63;5032233;28;20041;-87
2021/12/01 04:18:12;;;;;;;11.80;8.18;;;;;;;6.93;100.00;99578.72;5031924;28;20064;-87
2021/12/01 04:20:38;;;;;;;10.70;7.70;;;;;;;6.91;100.00;99575.34;5031156;28;20034;-85
2021/12/01 04:23:04;;;;;;;10.98;7.35;;;;;;;6.90;100.00;99568.44;5031472;28;20017;-89
2021/12/01 04:25:29;;;;;;;10.32;7.15;;;;;;;6.86;100.00;99578.03;5032908;28;20048;-86
2021/12/01 04:27:55;;;;;;;8.48;6.15;;;;;;;6.84;100.00;99559.13;5032761;28;20029;-86
2021/12/01 04:30:22;;;;;;;11.10;6.82;;;;;;;6.85;100.00;99557.38;5032221;28;20026;-87
2021/12/01 04:32:49;;;;;;;10.38;6.80;;;;;;;6.79;100.00;99538.53;5030654;28;20033;-88
2021/12/01 04:35:17;;;;;;;10.23;6.90;;;;;;;6.83;100.00;99535.84;5031979;28;20029;-88
2021/12/01 04:37:42;;;;;;;10.02;6.50;;;;;;;6.77;100.00;99527.38;5031117;28;20401;-87
2021/12/01 04:40:08;;;;;;;8.15;5.78;;;;;;;6.77;100.00;99505.81;5032314;28;20037;-87
2021/12/01 04:42:34;;;;;;;7.50;4.95;;;;;;;6.79;100.00;99510.03;5030741;28;20036;-87
2021/12/01 04:45:00;;;;;;;9.40;6.13;;;;;;;6.75;100.00;99500.66;5032398;28;20026;-87
2021/12/01 04:47:28;;;;;;;7.78;5.10;;;;;;;6.76;100.00;99504.94;5031848;28;20025;-87
2021/12/01 04:49:54;;;;;;;7.78;5.28;;;;;;;6.72;100.00;99484.34;5025489;28;20017;-87
2021/12/01 04:52:20;;;;;;;8.85;5.40;;;;;;;6.72;100.00;99482.59;5031875;28;20427;-87
2021/12/01 04:54:45;;;;;;;8.70;5.28;;;;;;;6.74;100.00;99486.00;5032118;28;20083;-88
2021/12/01 04:57:10;;;;;;;9.00;5.38;;;;;;;6.72;100.00;99481.75;5035161;28;20461;-87
2021/12/01 04:59:37;;;;;;;9.55;6.00;;;;;;;6.67;100.00;99460.31;5035468;28;20059;-87
2021/12/01 05:02:03;;;;;;;7.53;5.38;;;;;;;6.68;100.00;99462.88;5034037;28;20021;-85
2021/12/01 05:04:29;;;;;;;10.38;5.93;;;;;;;6.71;100.00;99465.38;5034492;28;20362;-87
2021/12/01 05:06:55;;;;;;;10.85;6.22;;;;;;;6.70;100.00;99453.34;5034590;28;20036;-87
2021/12/01 05:09:20;;;;;;;9.48;5.72;;;;;;;6.65;100.00;99451.78;5035236;28;20053;-87
2021/12/01 05:11:46;;;;;;;10.40;6.25;;;;;;;6.62;100.00;99451.84;5034467;28;20049;-87
2021/12/01 05:14:12;;;;;;;10.52;6.22;;;;;;;6.66;100.00;99450.88;5034795;28;20459;-87
2021/12/01 05:16:39;;;;;;;8.48;5.78;;;;;;;6.61;100.00;99442.41;5034953;28;20025;-86
2021/12/01 05:19:08;;;;;;;10.90;5.55;;;;;;;6.65;100.00;99434.47;5033661;28;20099;-87
2021/12/01 05:21:33;;;;;;;7.53;5.40;;;;;;;6.58;100.00;99430.38;5034402;28;20032;-89
2021/12/01 05:24:00;;;;;;;7.75;5.10;;;;;;;6.60;100.00;99417.38;5035373;28;20026;-87
2021/12/01 05:26:26;;;;;;;8.88;5.38;;;;;;;6.62;100.00;99421.63;5034153;28;20037;-87
2021/12/01 05:28:51;;;;;;;8.93;5.47;;;;;;;6.61;100.00;99416.50;5035739;28;20025;-87
2021/12/01 05:31:16;;;;;;;7.50;5.38;;;;;;;6.59;100.00;99416.53;5035241;28;20105;-88
2021/12/01 05:33:42;;;;;;;7.78;5.35;;;;;;;6.56;100.00;99408.84;5034084;28;20432;-88
2021/12/01 05:36:08;;;;;;;7.10;4.95;;;;;;;6.57;100.00;99414.00;5034339;28;20036;-86
2021/12/01 05:38:33;;;;;;;6.20;4.60;;;;;;;6.56;100.00;99414.88;5035381;28;20028;-89
2021/12/01 05:40:59;;;;;;;6.10;4.43;;;;;;;6.57;100.00;99401.06;5034896;28;20029;-87
2021/12/01 05:43:24;;;;;;;8.65;4.35;;;;;;;6.54;100.00;99400.31;5034697;28;20025;-86
2021/12/01 05:45:49;;;;;;;5.65;4.30;;;;;;;6.55;100.00;99391.63;5034749;28;20553;-88
2021/12/01 05:48:15;;;;;;;4.93;3.60;;;;;;;6.57;100.00;99397.59;5034172;28;20163;-87
2021/12/01 05:50:41;;;;;;;6.90;4.25;;;;;;;6.56;100.00;99389.00;5034585;28;20124;-87
2021/12/01 05:53:07;;;;;;;7.72;3.92;;;;;;;6.56;100.00;99378.63;5033388;28;20411;-86
2021/12/01 05:55:33;;;;;;;5.20;3.75;;;;;;;6.52;100.00;99377.03;5034978;28;20029;-89
2021/12/01 05:57:58;;;;;;;5.63;3.83;;;;;;;6.56;100.00;99377.78;5035390;28;20040;-88
2021/12/01 06:00:24;;;;;;;5.10;3.50;;;;;;;6.48;100.00;99359.06;5034551;28;20029;-87
2021/12/01 06:02:51;;;;;;;5.03;3.75;;;;;;;6.58;100.00;99360.47;5034819;28;20025;-88
2021/12/01 06:05:17;;;;;;;5.45;3.33;;;;;;;6.55;100.00;99355.38;5035552;28;20499;-87
2021/12/01 06:07:43;;;;;;;4.70;3.33;;;;;;;6.56;100.00;99341.53;5033747;28;20120;-87
2021/12/01 06:10:09;;;;;;;4.70;3.75;;;;;;;6.56;100.00;99329.44;5034512;28;20053;-88
2021/12/01 06:12:35;;;;;;;4.47;3.08;;;;;;;6.54;100.00;99315.72;5034475;28;20037;-86
2021/12/01 06:15:01;;;;;;;4.28;3.42;;;;;;;6.55;100.00;99330.34;5034498;28;20065;-86
2021/12/01 06:17:26;;;;;;;6.82;3.35;;;;;;;6.55;100.00;99298.44;5035400;28;20025;-87
2021/12/01 06:19:53;;;;;;;4.45;3.03;;;;;;;6.54;100.00;99294.16;5034264;28;20041;-86
2021/12/01 06:22:19;;;;;;;5.53;3.40;;;;;;;6.62;100.00;99309.44;5034883;28;20124;-87
2021/12/01 06:24:44;;;;;;;4.45;3.08;;;;;;;6.55;100.00;99290.66;5034631;28;20053;-87
2021/12/01 06:27:11;;;;;;;5.68;3.88;;;;;;;6.57;100.00;99296.63;5034496;28;20041;-87
2021/12/01 06:29:37;;;;;;;4.35;3.55;;;;;;;6.59;100.00;99300.00;5033953;28;20376;-86
2021/12/01 06:32:02;;;;;;;3.83;3.28;;;;;;;6.58;100.00;99295.75;5035157;28;20025;-87
2021/12/01 06:34:27;;;;;;;7.05;3.75;;;;;;;6.57;100.00;99281.06;5034528;28;20116;-88
2021/12/01 06:36:53;;;;;;;5.35;3.35;;;;;;;6.56;100.00;99281.97;5033930;28;20461;-87
2021/12/01 06:39:18;;;;;;;5.72;3.60;;;;;;;6.60;100.00;99278.41;5034637;28;20025;-88
2021/12/01 06:41:44;;;;;;;5.45;3.88;;;;;;;6.59;100.00;99281.03;5035019;28;20032;-89
2021/12/01 06:44:09;;;;;;;5.43;3.95;;;;;;;6.58;100.00;99264.66;5035136;28;20128;-88
2021/12/01 06:46:34;;;;;;;6.75;4.20;;;;;;;6.62;100.00;99281.78;5034846;28;20044;-89
2021/12/01 06:48:59;;;;;;;6.63;4.03;;;;;;;6.61;100.00;99255.97;5034017;28;20040;-89
2021/12/01 06:51:25;;;;;;;5.32;3.80;;;;;;;6.63;100.00;99267.94;5034049;28;20025;-87
2021/12/01 06:53:51;;;;;;;4.80;3.55;;;;;;;6.64;100.00;99255.84;5033818;28;20030;-88
2021/12/01 06:56:16;;;;;;;6.55;4.10;;;;;;;6.67;100.00;99266.09;5033767;28;20029;-89
2021/12/01 06:58:43;;;;;;;6.20;4.25;;;;;;;6.68;100.00;99258.28;5033964;28;20378;-87
2021/12/01 07:01:09;;;;;;;5.40;4.22;;;;;;;6.64;100.00;99241.16;5032921;28;20094;-87
2021/12/01 07:03:35;;;;;;;6.13;4.97;;;;;;;6.70;100.00;99248.75;5032766;28;20029;-87
2021/12/01 07:06:01;;;;;;;5.40;4.13;;;;;;;6.72;100.00;99238.31;5033689;28;20523;-87
2021/12/01 07:08:27;;;;;;;7.65;5.05;;;;;;;6.79;100.00;99251.00;5033309;28;20037;-86
2021/12/01 07:10:52;;;;;;;6.55;5.45;;;;;;;6.76;100.00;99252.84;5033013;28;20029;-86
2021/12/01 07:13:18;;;;;;;8.52;5.50;;;;;;;6.80;100.00;99236.31;5033513;28;20064;-86
2021/12/01 07:15:43;;;;;;;7.93;5.78;;;;;;;6.81;100.00;99245.78;5046480;28;20045;-86
2021/12/01 07:18:09;;;;;;;9.05;5.88;;;;;;;6.81;100.00;99238.00;5039145;28;20072;-84
2021/12/01 07:20:34;;;;;;;9.20;5.70;;;;;;;6.82;100.00;99237.09;5031160;28;20040;-83
2021/12/01 07:23:01;;;;;;;8.75;5.82;;;;;;;6.86;100.00;99240.44;5032455;28;20096;-83
2021/12/01 07:25:27;;;;;;;11.57;7.05;;;;;;;6.83;100.00;99231.03;5030183;28;20026;-84
2021/12/01 07:27:52;;;;;;;9.27;6.10;;;;;;;6.88;100.00;99242.09;5032168;28;20499;-84
2021/12/01 07:30:18;;;;;;;8.80;6.30;;;;;;;6.87;100.00;99236.97;5032432;28;20068;-84
2021/12/01 07:32:43;;;;;;;11.32;6.68;;;;;;;6.84;100.00;99230.13;5031132;28;20476;-84
2021/12/01 07:35:09;;;;;;;10.52;6.95;;;;;;;6.92;100.00;99229.88;5032436;28;20465;-83
2021/12/01 07:37:34;;;;;;;12.88;7.70;;;;;;;6.91;100.00;99235.97;5029857;28;20053;-84
2021/12/01 07:39:59;;;;;;;13.85;7.72;;;;;;;6.90;100.00;99229.06;5031577;28;20061;-83
2021/12/01 07:42:24;;;;;;;14.63;7.30;;;;;;;6.96;100.00;99240.06;5032246;28;20481;-83
2021/12/01 07:44:50;;;;;;;13.38;8.30;;;;;;;6.95;100.00;99234.94;5031952;28;20033;-84
2021/12/01 07:47:15;;;;;;;12.95;8.25;;;;;;;6.96;100.00;99239.22;5030743;28;20052;-84
2021/12/01 07:49:41;;;;;;;14.63;8.48;;;;;;;6.98;100.00;99235.69;5031441;28;20147;-87
2021/12/01 07:52:07;;;;;;;14.70;8.40;;;;;;;6.95;100.00;99224.59;5031405;28;20385;-85
2021/12/01 07:54:33;;;;;;;15.05;7.82;;;;;;;6.97;100.00;99221.03;5029575;28;20481;-85
2021/12/01 07:56:59;;;;;;;15.02;7.85;;;;;;;7.00;100.00;99207.16;5032363;28;20034;-85
2021/12/01 07:59:24;;;;;;;12.45;7.38;;;;;;;6.95;100.00;99199.53;5030831;28;20026;-85
2021/12/01 08:01:50;;;;;;;13.95;7.45;;;;;;;7.05;100.00;99205.22;5031498;28;20044;-86
2021/12/01 08:04:15;;;;;;;14.57;7.68;;;;;;;7.02;100.00;99205.31;5032100;28;20030;-84
2021/12/01 08:06:43;;;;;;;13.35;7.70;;;;;;;7.00;100.00;99197.63;5031258;28;20021;-85
2021/12/01 08:09:09;;;;;;;13.80;8.05;;;;;;;6.94;100.00;99171.09;5032034;28;20029;-85
2021/12/01 08:11:35;;;;;;;13.63;8.75;;;;;;;7.06;100.00;99196.53;5031805;28;20531;-85
2021/12/01 08:14:00;;;;;;;14.23;8.32;;;;;;;7.12;100.00;99193.75;5029844;28;20030;-85
2021/12/01 08:16:26;;;;;;;13.55;8.35;;;;;;;7.10;100.00;99180.00;5032263;28;20021;-85
2021/12/01 08:18:53;;;;;;;15.18;9.13;;;;;;;7.14;100.00;99184.19;5031472;28;20045;-85
2021/12/01 08:21:25;;;;;;;13.30;8.50;;;;;;;7.18;100.00;99190.09;5030592;28;20018;-86
2021/12/01 08:23:51;;;;;;;14.80;8.90;;;;;;;7.15;100.00;99196.22;5032085;28;20021;-84
2021/12/01 08:26:18;;;;;;;13.80;8.80;;;;;;;7.15;100.00;99187.59;5031842;28;20014;-85
2021/12/01 08:28:45;;;;;;;14.50;8.38;;;;;;;7.18;100.00;99190.94;5030342;28;20055;-86
2021/12/01 08:31:14;;;;;;;13.80;8.52;;;;;;;7.20;100.00;99183.13;5036878;28;20109;-84
2021/12/01 08:33:41;;;;;;;12.20;7.70;;;;;;;7.17;100.00;99168.50;5038459;28;20113;-85
2021/12/01 08:36:07;;;;;;;12.20;7.88;;;;;;;7.22;100.00;99183.88;5037747;28;20112;-86
2021/12/01 08:38:32;;;;;;;13.20;7.55;;;;;;;7.19;100.00;99166.72;5038364;28;20451;-85
2021/12/01 08:40:59;;;;;;;11.48;7.20;;;;;;;7.22;100.00;99169.19;5038279;28;20505;-85
2021/12/01 08:43:24;;;;;;;11.95;7.25;;;;;;;7.33;100.00;99167.97;5036939;28;20029;-85
2021/12/01 08:45:50;;;;;;;11.88;7.65;;;;;;;7.33;100.00;99167.97;5192845;22;20443;-84
2021/12/01 08:48:15;;;;;;;14.40;7.50;;;;;;;7.37;100.00;99154.81;5058290;28;20433;-84
2021/12/01 08:50:40;;;;;;;11.20;6.88;;;;;;;7.37;100.00;99172.13;5057557;28;20033;-85
2021/12/01 08:53:06;;;;;;;11.60;6.63;;;;;;;7.37;100.00;99154.81;5057914;28;20476;-85
2021/12/01 08:55:31;;;;;;;11.70;7.10;;;;;;;7.37;100.00;99148.78;5078261;28;20146;-85
2021/12/01 08:57:56;;;;;;;10.20;6.32;;;;;;;7.54;100.00;99156.78;5078208;28;20025;-84
2021/12/01 09:00:22;;;;;;;9.30;6.53;;;;;;;7.61;100.00;99160.81;5078331;28;20024;-85
2021/12/01 09:02:47;;;;;;;8.70;6.20;;;;;;;7.67;100.00;99163.19;5202508;22;20080;-84
2021/12/01 09:05:12;;;;;;;8.00;5.90;;;;;;;7.73;100.00;99156.94;5038527;28;20021;-84
2021/12/01 09:07:38;;;;;;;7.03;5.07;;;;;;;7.64;100.00;99155.53;5037657;28;20386;-85
2021/12/01 09:10:05;;;;;;;5.60;4.60;;;;;;;7.56;100.00;99161.91;5057048;28;20132;-86
2021/12/01 09:12:30;;;;;;;5.30;4.20;;;;;;;7.49;100.00;99161.31;5058215;28;20056;-85
2021/12/01 09:26:33;;;;;;;5.28;3.45;;;;;;;7.42;100.00;99168.47;5076896;28;20388;-83
2021/12/01 09:29:14;;;;;;;6.10;3.70;;;;;;;7.36;100.00;99162.66;5098401;28;20032;-83
2021/12/01 09:31:48;;;;;;;6.72;4.03;;;;;;;7.07;100.00;99120.50;5097575;28;20038;-85
2021/12/01 09:38:37;;;;;;;7.15;4.72;;;;;;;7.08;100.00;99158.47;5033876;28;20040;-83
2021/12/01 09:41:03;;;;;;;8.48;4.60;;;;;;;7.12;100.00;99157.47;5027472;28;20063;-82
2021/12/01 09:43:41;;;;;;;10.15;5.30;;;;;;;6.85;100.00;99122.19;5051712;28;20411;-84
2021/12/01 09:49:14;;;;;;;9.45;4.97;;;;;;;6.85;100.00;99150.69;5106514;27;20055;-83
2021/12/01 09:51:45;;;;;;;8.68;4.93;;;;;;;6.98;100.00;99162.31;5136081;27;20041;-84
2021/12/01 09:58:52;;;;;;;8.85;4.53;;;;;;;7.21;100.00;99192.56;5136642;27;20037;-87
2021/12/01 10:08:00;;;;;;;14.35;4.22;;;;;;;6.88;100.00;99168.72;5081178;28;20085;-88
2021/12/01 10:10:25;;;;;;;7.47;3.35;;;;;;;7.03;100.00;99181.97;5136265;27;20027;-85
2021/12/01 10:12:51;;;;;;;14.98;3.45;;;;;;;7.01;100.00;99188.09;5182370;22;20061;-87
2021/12/01 10:15:30;;;;;;;12.57;3.40;;;;;;;6.90;100.00;99185.91;5053812;28;20036;-86
2021/12/01 10:18:14;;;;;;;20.23;3.95;;;;;;;6.89;100.00;99188.53;5054621;28;20107;-87
2021/12/01 10:20:41;;;;;;;9.23;3.30;;;;;;;6.82;100.00;99187.06;5053154;28;20084;-86
2021/12/01 10:23:14;;;;;;;16.38;3.42;;;;;;;6.84;100.00;99190.44;5054115;28;20373;-87
2021/12/01 10:25:40;;;;;;;11.75;3.30;;;;;;;6.90;100.00;99205.75;5054347;28;20376;-86
2021/12/01 10:28:06;;;;;;;13.77;2.80;;;;;;;6.91;100.00;99187.56;5053189;28;20100;-86
2021/12/01 10:30:39;;;;;;;14.98;2.72;;;;;;;6.93;100.00;99195.28;5053929;28;20021;-86
2021/12/01 10:33:09;;;;;;;8.10;1.87;;;;;;;6.95;100.00;99191.75;5050599;28;20032;-86
2021/12/01 10:35:36;;;;;;;16.20;2.50;;;;;;;6.97;100.00;99196.88;5052440;28;20318;-86
2021/12/01 10:38:01;;;;;;;13.27;2.17;;;;;;;6.89;100.00;99179.00;5054231;28;20033;-86
2021/12/01 10:40:27;;;;;;;11.05;1.77;;;;;;;6.89;100.00;99204.91;5053788;28;20032;-85
2021/12/01 10:43:08;;;;;;;6.72;1.38;;;;;;;6.88;100.00;99184.25;5047472;28;20531;-87
2021/12/01 10:45:46;;;;;;;12.23;1.90;;;;;;;6.79;100.00;99173.28;5047822;28;20388;-86
2021/12/01 10:48:22;;;;;;;8.02;1.98;;;;;;;6.75;100.00;99170.88;5035457;28;20025;-86
2021/12/01 10:50:47;;;;;;;15.40;2.03;;;;;;;6.86;100.00;99176.50;5045869;28;20480;-83
2021/12/01 10:53:21;;;;;;;14.73;2.35;;;;;;;7.03;100.00;99181.97;5033069;28;20034;-83
2021/12/01 10:55:51;;;;;;;16.13;1.85;;;;;;;7.23;100.00;99180.41;5041299;28;20198;-83
2021/12/01 10:58:18;;;;;;;7.10;1.75;;;;;;;7.24;100.00;99180.34;5046054;28;20041;-83
2021/12/01 11:00:51;;;;;;;11.35;1.70;;;;;;;7.21;100.00;99177.03;5037272;28;20037;-84
2021/12/01 11:03:25;;;;;;;10.27;2.25;;;;;;;7.06;100.00;99174.97;5032745;28;20041;-84
2021/12/01 11:05:52;;;;;;;13.15;2.47;;;;;;;6.99;100.00;99179.53;5033167;28;20049;-84
2021/12/01 11:08:20;;;;;;;8.55;1.70;;;;;;;6.98;100.00;99183.88;5031203;28;20032;-85
2021/12/01 11:10:49;;;;;;;8.98;2.38;;;;;;;6.96;100.00;99179.63;5031040;28;20072;-83
2021/12/01 11:13:15;;;;;;;12.13;1.55;;;;;;;6.91;100.00;99195.34;5032747;28;20045;-82
2021/12/01 11:15:44;;;;;;;9.68;1.40;;;;;;;6.92;100.00;99199.63;5039898;28;20029;-82
2021/12/01 11:18:17;;;;;;;9.55;1.65;;;;;;;6.87;100.00;99195.53;5051992;28;20373;-83
2021/12/01 11:25:07;;;;;;;6.18;1.40;;;;;;;6.86;100.00;99207.59;4990686;28;20595;-86
2021/12/01 11:35:10;;;;;;;8.98;1.50;;;;;;;6.38;100.00;99153.16;4933442;29;20078;-82
2021/12/01 11:43:58;;;;;;;4.85;1.35;;;;;;;6.66;100.00;99200.50;5393266;22;20126;-84
2021/12/01 11:46:23;;;;;;;6.80;1.52;;;;;;;6.71;100.00;99177.91;5091890;28;20457;-85
2021/12/01 11:48:52;;;;;;;13.55;1.70;;;;;;;6.73;100.00;99183.88;5092459;28;20032;-85
2021/12/01 11:51:24;;;;;;;8.60;1.95;;;;;;;6.90;100.00;99191.06;5087105;28;20028;-84
2021/12/01 11:53:56;;;;;;;8.48;1.40;;;;;;;6.92;100.00;99185.81;5091455;28;20075;-85
2021/12/01 11:56:26;;;;;;;7.90;1.45;;;;;;;6.87;100.00;99190.34;5087842;28;20111;-85
2021/12/01 11:58:59;;;;;;;5.32;1.38;;;;;;;6.87;100.00;99195.53;5081763;28;20028;-84
2021/12/01 12:01:24;;;;;;;7.68;1.48;;;;;;;6.83;100.00;99189.56;5081539;28;20028;-85
2021/12/01 12:03:59;;;;;;;8.10;1.30;;;;;;;6.79;100.00;99198.34;5076718;28;20527;-84
2021/12/01 12:06:27;;;;;;;6.10;1.27;;;;;;;6.75;100.00;99192.44;5089155;28;20070;-84
2021/12/01 12:08:57;;;;;;;8.75;1.30;;;;;;;6.77;100.00;99185.47;5092304;28;20024;-85
2021/12/01 12:11:36;;;;;;;8.30;1.38;;;;;;;6.76;100.00;99204.47;5091129;28;20047;-84
2021/12/01 12:14:06;;;;;;;9.27;1.48;;;;;;;6.80;100.00;99212.97;5089108;28;20479;-85
2021/12/01 12:16:33;;;;;;;8.57;1.52;;;;;;;6.74;100.00;99188.16;5092244;28;20028;-84
2021/12/01 12:23:05;;;;;;;11.43;1.60;;;;;;;6.73;100.00;99178.69;5043915;28;20039;-85
2021/12/01 12:26:15;;;;;;;7.63;1.65;;;;;;;6.85;100.00;99208.50;5068902;28;20423;-84